createdAt,value
2019-01-10T00:01:25.477Z,78.64
2019-01-10T00:03:55.696Z,78.69
2019-01-10T00:06:25.888Z,78.78
2019-01-10T00:08:56.016Z,78.86
2019-01-10T00:11:26.606Z,78.96
2019-01-10T00:13:56.721Z,79.00
2019-01-10T00:16:26.923Z,79.08
2019-01-10T00:18:57.253Z,79.15
2019-01-10T00:21:27.445Z,79.24
2019-01-10T00:23:57.571Z,79.33
2019-01-10T00:26:27.860Z,79.38
2019-01-10T00:28:58.075Z,79.46
2019-01-10T00:31:28.281Z,79.55
2019-01-10T00:33:58.351Z,79.60
2019-01-10T00:36:28.531Z,79.62
2019-01-10T00:38:58.733Z,79.70
2019-01-10T00:41:28.855Z,79.76
2019-01-10T00:43:58.908Z,79.81
2019-01-10T00:46:29.002Z,79.81
2019-01-10T00:48:59.127Z,79.87
2019-01-10T00:51:29.310Z,79.93
2019-01-10T00:53:59.514Z,80.05
2019-01-10T00:56:29.720Z,80.14
2019-01-10T00:59:00.024Z,80.17
2019-01-10T01:01:30.211Z,80.21
2019-01-10T01:04:00.416Z,80.25
2019-01-10T01:06:30.599Z,80.27
2019-01-10T01:09:00.808Z,80.27
2019-01-10T01:11:30.958Z,80.33
2019-01-10T01:14:01.138Z,80.35
2019-01-10T01:16:31.334Z,80.32
2019-01-10T01:19:01.462Z,80.34
2019-01-10T01:21:31.669Z,80.30
2019-01-10T01:24:01.855Z,80.29
2019-01-10T01:26:31.977Z,80.29
2019-01-10T01:29:02.158Z,80.28
2019-01-10T01:31:32.358Z,80.26
2019-01-10T01:34:02.414Z,80.28
2019-01-10T01:36:32.544Z,80.31
2019-01-10T01:39:02.611Z,80.28
2019-01-10T01:41:32.737Z,80.29
2019-01-10T01:44:02.941Z,80.30
2019-01-10T01:46:43.901Z,80.31
2019-01-10T01:49:22.940Z,80.34
2019-01-10T01:51:53.094Z,80.38
2019-01-10T01:54:23.367Z,80.39
2019-01-10T01:56:53.545Z,80.40
2019-01-10T01:59:23.682Z,80.43
2019-01-10T02:01:54.146Z,80.42
2019-01-10T02:04:24.273Z,80.41
2019-01-10T02:06:54.389Z,80.43
2019-01-10T02:09:24.517Z,80.43
2019-01-10T02:11:54.764Z,80.50
2019-01-10T02:14:24.938Z,80.52
2019-01-10T02:16:55.062Z,80.53
2019-01-10T02:19:25.177Z,80.51
2019-01-10T02:21:55.456Z,80.54
2019-01-10T02:24:25.724Z,80.54
2019-01-10T02:26:55.852Z,80.54
2019-01-10T02:29:26.108Z,80.58
2019-01-10T02:31:56.307Z,80.57
2019-01-10T02:34:26.425Z,80.60
2019-01-10T02:36:56.611Z,80.63
2019-01-10T02:39:26.836Z,80.65
2019-01-10T02:41:57.010Z,80.66
2019-01-10T02:44:27.227Z,80.66
2019-01-10T02:46:57.377Z,80.64
2019-01-10T02:49:27.428Z,80.61
2019-01-10T02:51:57.602Z,80.64
2019-01-10T02:54:27.879Z,80.67
2019-01-10T02:56:58.083Z,80.72
2019-01-10T02:59:28.260Z,80.76
2019-01-10T03:01:58.387Z,80.78
2019-01-10T03:04:33.486Z,80.78
2019-01-10T03:07:01.151Z,80.80
2019-01-10T03:09:31.348Z,80.77
2019-01-10T03:12:01.485Z,80.82
2019-01-10T03:14:31.698Z,80.80
2019-01-10T03:17:01.893Z,80.80
2019-01-10T03:19:32.087Z,80.80
2019-01-10T03:22:02.359Z,80.80
2019-01-10T03:24:32.497Z,80.83
2019-01-10T03:27:02.758Z,80.83
2019-01-10T03:29:32.888Z,80.82
2019-01-10T03:32:03.180Z,80.86
2019-01-10T03:34:34.993Z,80.87
2019-01-10T03:37:05.172Z,80.89
2019-01-10T03:39:35.312Z,80.92
2019-01-10T03:42:06.758Z,80.93
2019-01-10T03:44:36.836Z,80.93
2019-01-10T03:47:07.050Z,80.94
2019-01-10T03:49:37.219Z,80.94
2019-01-10T03:52:07.460Z,80.95
2019-01-10T03:54:37.596Z,80.94
2019-01-10T03:57:07.718Z,80.95
2019-01-10T03:59:37.926Z,80.95
2019-01-10T04:02:08.122Z,80.92
2019-01-10T04:04:38.332Z,80.90
2019-01-10T04:07:08.530Z,80.90
2019-01-10T04:09:38.741Z,80.92
2019-01-10T04:12:08.954Z,80.92
2019-01-10T04:14:39.407Z,80.91
2019-01-10T04:17:09.608Z,80.97
2019-01-10T04:19:39.840Z,81.00
2019-01-10T04:22:10.109Z,80.97
2019-01-10T04:24:40.263Z,80.99
2019-01-10T04:27:13.460Z,80.98
2019-01-10T04:29:43.580Z,80.98
2019-01-10T04:32:13.725Z,80.99
2019-01-10T04:34:43.788Z,81.00
2019-01-10T04:37:13.912Z,81.05
2019-01-10T04:39:44.029Z,81.09
2019-01-10T04:42:14.246Z,81.13
2019-01-10T04:44:44.451Z,81.15
2019-01-10T04:47:14.590Z,81.16
2019-01-10T04:49:44.756Z,81.17
2019-01-10T04:52:17.850Z,81.23
2019-01-10T04:54:47.900Z,81.24
2019-01-10T04:57:18.208Z,81.28
2019-01-10T04:59:48.258Z,81.30
2019-01-10T05:02:18.795Z,81.37
2019-01-10T05:04:49.020Z,81.35
2019-01-10T05:07:19.285Z,81.34
2019-01-10T05:09:49.468Z,81.36
2019-01-10T05:12:19.515Z,81.35
2019-01-10T05:14:49.637Z,81.39
2019-01-10T05:17:19.832Z,81.39
2019-01-10T05:19:49.955Z,81.37
2019-01-10T05:22:20.130Z,81.34
2019-01-10T05:24:50.245Z,81.34
2019-01-10T05:27:20.383Z,81.33
2019-01-10T05:29:50.520Z,81.32
2019-01-10T05:32:20.707Z,81.34
2019-01-10T05:34:50.752Z,81.35
2019-01-10T05:37:20.962Z,81.35
2019-01-10T05:39:50.989Z,81.41
2019-01-10T05:42:21.060Z,81.41
2019-01-10T05:44:51.193Z,81.43
2019-01-10T05:47:21.428Z,81.46
2019-01-10T05:49:51.466Z,81.48
2019-01-10T05:52:21.674Z,81.48
2019-01-10T05:54:51.758Z,81.54
2019-01-10T05:57:21.866Z,81.55
2019-01-10T05:59:52.006Z,81.55
2019-01-10T06:02:22.034Z,81.52
2019-01-10T06:04:52.163Z,81.52
2019-01-10T06:07:22.292Z,81.52
2019-01-10T06:09:52.350Z,81.56
2019-01-10T06:12:22.463Z,81.53
2019-01-10T06:14:54.199Z,81.53
2019-01-10T06:17:24.322Z,81.53
2019-01-10T06:19:54.503Z,81.52
2019-01-10T06:22:24.702Z,81.53
2019-01-10T06:24:54.820Z,81.54
2019-01-10T06:27:25.007Z,81.55
2019-01-10T06:29:55.283Z,81.57
2019-01-10T06:32:25.494Z,81.58
2019-01-10T06:34:55.712Z,81.60
2019-01-10T06:37:25.853Z,81.64
2019-01-10T06:39:55.990Z,81.66
2019-01-10T06:42:26.188Z,81.65
2019-01-10T06:44:56.243Z,81.66
2019-01-10T06:47:26.451Z,81.68
2019-01-10T06:49:56.510Z,81.74
2019-01-10T06:52:26.744Z,81.76
2019-01-10T06:54:56.956Z,81.75
2019-01-10T06:57:27.010Z,81.72
2019-01-10T06:59:57.144Z,81.74
2019-01-10T07:02:27.430Z,81.73
2019-01-10T07:04:57.555Z,81.74
2019-01-10T07:07:27.693Z,81.75
2019-01-10T07:09:57.879Z,81.73
2019-01-10T07:12:28.112Z,81.76
2019-01-10T07:14:58.245Z,81.76
2019-01-10T07:17:28.383Z,81.80
2019-01-10T07:19:58.437Z,81.81
2019-01-10T07:22:28.509Z,81.83
2019-01-10T07:24:58.743Z,81.84
2019-01-10T07:27:28.948Z,81.85
2019-01-10T07:29:59.737Z,81.91
2019-01-10T07:32:30.081Z,81.90
2019-01-10T07:35:19.025Z,81.88
2019-01-10T07:37:57.508Z,81.90
2019-01-10T07:40:28.496Z,81.89
2019-01-10T07:42:58.950Z,81.89
2019-01-10T07:45:31.917Z,81.88
2019-01-10T07:48:02.100Z,81.88
2019-01-10T07:50:37.652Z,81.88
2019-01-10T07:53:09.674Z,81.88
2019-01-10T07:55:40.499Z,81.89
2019-01-10T07:58:10.719Z,81.89
2019-01-10T08:00:40.898Z,81.94
2019-01-10T08:03:11.164Z,81.94
2019-01-10T08:05:41.349Z,81.97
2019-01-10T08:08:11.485Z,81.94
2019-01-10T08:10:41.786Z,81.97
2019-01-10T08:13:12.129Z,81.96
2019-01-10T08:15:42.323Z,81.94
2019-01-10T08:18:12.522Z,81.96
2019-01-10T08:20:42.808Z,81.96
2019-01-10T08:23:12.990Z,81.93
2019-01-10T08:25:43.096Z,81.93
2019-01-10T08:28:13.362Z,81.91
2019-01-10T08:30:45.016Z,81.90
2019-01-10T08:33:15.134Z,81.91
2019-01-10T08:35:45.395Z,81.88
2019-01-10T08:38:15.629Z,81.88
2019-01-10T08:40:45.806Z,81.84
2019-01-10T08:43:16.010Z,81.80
2019-01-10T08:45:46.146Z,81.78
2019-01-10T08:48:16.213Z,81.77
2019-01-10T08:50:46.403Z,81.73
2019-01-10T08:53:16.650Z,81.68
2019-01-10T08:55:46.870Z,81.63
2019-01-10T08:58:16.992Z,81.61
2019-01-10T09:00:47.220Z,81.60
2019-01-10T09:03:17.423Z,81.60
2019-01-10T09:05:47.638Z,81.58
2019-01-10T09:08:17.905Z,81.57
2019-01-10T09:10:48.130Z,81.57
2019-01-10T09:13:18.184Z,81.55
2019-01-10T09:15:48.374Z,81.54
2019-01-10T09:18:18.696Z,81.49
2019-01-10T09:20:48.903Z,81.45
2019-01-10T09:23:19.026Z,81.43
2019-01-10T09:25:49.230Z,81.39
2019-01-10T09:28:19.417Z,81.33
2019-01-10T09:30:49.635Z,81.28
2019-01-10T09:33:19.964Z,81.28
2019-01-10T09:35:50.143Z,81.28
2019-01-10T09:38:20.385Z,81.23
2019-01-10T09:40:50.582Z,81.20
2019-01-10T09:43:20.722Z,81.23
2019-01-10T09:45:50.863Z,81.18
2019-01-10T09:48:20.999Z,81.16
2019-01-10T09:50:51.505Z,81.14
2019-01-10T09:53:21.688Z,81.11
2019-01-10T09:55:51.880Z,81.13
2019-01-10T09:58:22.023Z,81.16
2019-01-10T10:00:52.321Z,81.11
2019-01-10T10:03:22.441Z,81.09
2019-01-10T10:05:52.559Z,81.10
2019-01-10T10:08:22.677Z,81.13
2019-01-10T10:10:52.804Z,81.15
2019-01-10T10:13:23.017Z,81.16
2019-01-10T10:15:53.148Z,81.20
2019-01-10T10:18:23.360Z,81.21
2019-01-10T10:20:53.618Z,81.19
2019-01-10T10:23:26.989Z,81.20
2019-01-10T10:25:55.720Z,81.17
2019-01-10T10:28:25.928Z,81.16
2019-01-10T10:30:56.128Z,81.17
2019-01-10T10:33:26.178Z,81.14
2019-01-10T10:35:56.390Z,81.14
2019-01-10T10:38:26.649Z,81.12
2019-01-10T10:40:56.871Z,81.12
2019-01-10T10:43:26.993Z,81.15
2019-01-10T10:46:01.632Z,81.17
2019-01-10T10:48:29.070Z,81.12
2019-01-10T10:50:59.267Z,81.03
2019-01-10T10:53:29.476Z,81.02
2019-01-10T10:55:59.605Z,81.01
2019-01-10T10:58:29.808Z,80.96
2019-01-10T11:01:00.108Z,80.85
2019-01-10T11:03:30.291Z,80.79
2019-01-10T11:06:00.483Z,80.71
2019-01-10T11:08:30.652Z,80.67
2019-01-10T11:11:00.796Z,80.62
2019-01-10T11:13:30.935Z,80.60
2019-01-10T11:16:10.448Z,80.56
2019-01-10T11:18:36.349Z,80.51
2019-01-10T11:21:07.082Z,80.51
2019-01-10T11:23:37.234Z,80.50
2019-01-10T11:26:09.435Z,80.43
2019-01-10T11:28:39.621Z,80.41
2019-01-10T11:31:09.747Z,80.37
2019-01-10T11:33:39.939Z,80.32
2019-01-10T11:36:10.140Z,80.22
2019-01-10T11:38:40.338Z,80.15
2019-01-10T11:41:10.526Z,80.09
2019-01-10T11:43:40.685Z,80.07
2019-01-10T11:46:19.236Z,80.01
2019-01-10T11:48:42.733Z,79.94
2019-01-10T11:51:12.895Z,79.89
2019-01-10T11:53:43.197Z,79.84
2019-01-10T11:56:13.383Z,79.77
2019-01-10T11:58:43.575Z,79.73
2019-01-10T12:01:13.824Z,79.79
2019-01-10T12:03:44.131Z,79.72
2019-01-10T12:06:16.735Z,79.61
2019-01-10T12:08:46.871Z,79.50
2019-01-10T12:11:16.899Z,79.46
2019-01-10T12:13:47.037Z,79.43
2019-01-10T12:16:17.163Z,79.46
2019-01-10T12:18:47.442Z,79.43
2019-01-10T12:21:17.640Z,79.43
2019-01-10T12:23:47.669Z,79.37
2019-01-10T12:26:17.878Z,79.20
2019-01-10T12:28:47.997Z,79.10
2019-01-10T12:31:18.193Z,78.95
2019-01-10T12:33:48.393Z,78.96
2019-01-10T12:36:18.533Z,78.87
2019-01-10T12:38:48.578Z,78.74
2019-01-10T12:41:18.849Z,78.76
2019-01-10T12:43:49.058Z,78.71
2019-01-10T12:46:19.101Z,78.61
2019-01-10T12:48:49.232Z,78.55
2019-01-10T12:51:19.428Z,78.47
2019-01-10T12:53:49.583Z,78.40
2019-01-10T12:56:19.735Z,78.29
2019-01-10T12:58:49.934Z,78.16
2019-01-10T13:01:20.210Z,78.07
2019-01-10T13:03:50.321Z,77.96
2019-01-10T13:06:20.603Z,77.90
2019-01-10T13:08:50.739Z,77.81
2019-01-10T13:11:21.113Z,77.70
2019-01-10T13:13:51.161Z,77.59
2019-01-10T13:16:21.429Z,77.51
2019-01-10T13:18:51.552Z,77.47
2019-01-10T13:21:21.818Z,77.34
2019-01-10T13:23:51.943Z,77.22
2019-01-10T13:26:22.254Z,77.29
2019-01-10T13:28:52.300Z,77.26
2019-01-10T13:31:22.691Z,76.84
2019-01-10T13:33:52.874Z,76.56
2019-01-10T13:36:23.060Z,76.47
2019-01-10T13:38:54.893Z,76.38
2019-01-10T13:41:25.113Z,76.39
2019-01-10T13:43:55.296Z,76.39
2019-01-10T13:46:25.584Z,76.44
2019-01-10T13:48:55.776Z,76.34
2019-01-10T13:51:25.970Z,75.94
2019-01-10T13:53:56.157Z,75.64
2019-01-10T13:56:26.388Z,75.61
2019-01-10T13:58:56.580Z,75.77
2019-01-10T14:01:26.786Z,76.00
2019-01-10T14:03:57.102Z,76.09
2019-01-10T14:06:27.284Z,76.06
2019-01-10T14:08:57.551Z,76.11
2019-01-10T14:11:27.680Z,76.16
2019-01-10T14:13:57.723Z,76.13
2019-01-10T14:16:27.977Z,76.10
2019-01-10T14:18:58.081Z,76.04
2019-01-10T14:21:28.228Z,75.95
2019-01-10T14:23:58.267Z,76.04
2019-01-10T14:26:28.494Z,75.91
2019-01-10T14:28:58.697Z,76.02
2019-01-10T14:31:28.914Z,76.03
2019-01-10T14:33:59.028Z,75.96
2019-01-10T14:36:29.238Z,76.12
2019-01-10T14:38:59.337Z,76.27
2019-01-10T14:41:29.562Z,76.36
2019-01-10T14:43:59.741Z,76.40
2019-01-10T14:46:30.033Z,76.48
2019-01-10T14:49:00.090Z,76.68
2019-01-10T14:51:30.759Z,76.77
2019-01-10T14:54:00.844Z,76.82
2019-01-10T14:56:31.150Z,76.91
2019-01-10T14:59:01.273Z,77.07
2019-01-10T15:01:34.714Z,77.25
2019-01-10T15:04:05.001Z,77.38
2019-01-10T15:06:35.217Z,77.54
2019-01-10T15:09:10.468Z,77.63
2019-01-10T15:11:41.857Z,77.70
2019-01-10T15:14:16.160Z,77.70
2019-01-10T15:16:43.969Z,77.79
2019-01-10T15:19:14.203Z,77.85
2019-01-10T15:21:44.398Z,77.91
2019-01-10T15:24:14.503Z,77.97
2019-01-10T15:26:44.609Z,78.02
2019-01-10T15:29:14.731Z,78.09
2019-01-10T15:31:44.849Z,78.11
2019-01-10T15:34:15.713Z,78.21
2019-01-10T15:36:45.903Z,78.32
2019-01-10T15:39:16.113Z,78.42
2019-01-10T15:41:46.221Z,78.47
2019-01-10T15:44:16.327Z,78.57
2019-01-10T15:46:46.598Z,78.64
2019-01-10T15:49:16.646Z,78.69
2019-01-10T15:51:46.782Z,78.79
2019-01-10T15:54:16.870Z,78.88
2019-01-10T15:56:47.060Z,79.00
2019-01-10T15:59:17.227Z,79.05
2019-01-10T16:01:47.425Z,79.11
2019-01-10T16:04:17.588Z,79.19
2019-01-10T16:06:47.814Z,79.29
2019-01-10T16:09:17.958Z,79.37
2019-01-10T16:11:48.134Z,79.42
2019-01-10T16:14:18.240Z,79.51
2019-01-10T16:16:48.911Z,79.59
2019-01-10T16:19:22.061Z,79.62
2019-01-10T16:21:52.306Z,79.69
2019-01-10T16:24:22.556Z,79.76
2019-01-10T16:26:52.711Z,79.88
2019-01-10T16:29:22.849Z,79.94
2019-01-10T16:31:53.048Z,80.01
2019-01-10T16:34:23.113Z,80.04
2019-01-10T16:36:53.452Z,80.10
2019-01-10T16:39:23.575Z,80.16
2019-01-10T16:41:53.719Z,80.18
2019-01-10T16:44:23.857Z,80.24
2019-01-10T16:46:54.109Z,80.29
2019-01-10T16:49:24.365Z,80.33
2019-01-10T16:51:57.536Z,80.33
2019-01-10T16:54:27.819Z,80.35
2019-01-10T16:56:57.913Z,80.38
2019-01-10T16:59:29.780Z,80.42
2019-01-10T17:02:00.116Z,80.48
2019-01-10T17:04:30.537Z,80.53
2019-01-10T17:07:00.850Z,80.60
2019-01-10T17:09:31.043Z,80.67
2019-01-10T17:12:01.407Z,80.69
2019-01-10T17:14:31.544Z,80.77
2019-01-10T17:17:07.156Z,80.82
2019-01-10T17:19:37.420Z,80.92
2019-01-10T17:22:07.817Z,80.97
2019-01-10T17:24:38.049Z,81.01
2019-01-10T17:27:08.334Z,81.06
2019-01-10T17:29:38.442Z,81.12
2019-01-10T17:32:08.696Z,81.20
2019-01-10T17:34:40.486Z,81.25
2019-01-10T17:37:10.770Z,81.31
2019-01-10T17:39:40.956Z,81.36
2019-01-10T17:42:11.168Z,81.42
2019-01-10T17:44:41.409Z,81.44
2019-01-10T17:47:11.611Z,81.51
2019-01-10T17:49:41.831Z,81.56
2019-01-10T17:52:12.135Z,81.64
2019-01-10T17:54:42.179Z,81.72
2019-01-10T17:57:12.289Z,81.75
2019-01-10T17:59:42.564Z,81.78
2019-01-10T18:02:12.868Z,81.86
2019-01-10T18:04:43.043Z,81.90
2019-01-10T18:07:13.361Z,81.90
2019-01-10T18:09:43.608Z,81.95
2019-01-10T18:12:15.122Z,81.96
2019-01-10T18:14:45.458Z,82.03
2019-01-10T18:17:15.573Z,82.04
2019-01-10T18:19:45.938Z,82.07
2019-01-10T18:22:16.182Z,82.19
2019-01-10T18:24:46.384Z,82.27
2019-01-10T18:27:16.584Z,82.29
2019-01-10T18:29:50.995Z,82.35
2019-01-10T18:32:21.123Z,82.41
2019-01-10T18:34:51.636Z,82.47
2019-01-10T18:37:21.781Z,82.62
2019-01-10T18:39:52.002Z,82.64
2019-01-10T18:42:22.278Z,82.72
2019-01-10T18:44:52.516Z,82.71
2019-01-10T18:47:22.624Z,82.75
2019-01-10T18:49:52.859Z,82.79
2019-01-10T18:52:23.065Z,82.81
2019-01-10T18:55:00.013Z,82.88
2019-01-10T18:57:25.610Z,82.92
2019-01-10T18:59:55.832Z,82.92
2019-01-10T19:02:26.460Z,82.95
2019-01-10T19:04:56.582Z,82.94
2019-01-10T19:07:26.776Z,83.04
2019-01-10T19:09:57.060Z,83.18
2019-01-10T19:12:27.342Z,83.17
2019-01-10T19:14:57.504Z,83.25
2019-01-10T19:17:27.852Z,83.19
2019-01-10T19:19:58.027Z,83.17
2019-01-10T19:22:28.289Z,83.17
2019-01-10T19:24:58.553Z,83.19
2019-01-10T19:27:29.717Z,83.23
2019-01-10T19:30:00.178Z,83.22
2019-01-10T19:32:30.344Z,83.27
2019-01-10T19:35:00.566Z,83.31
2019-01-10T19:37:30.829Z,83.36
2019-01-10T19:40:01.118Z,83.39
2019-01-10T19:42:31.347Z,83.50
2019-01-10T19:45:01.602Z,83.50
2019-01-10T19:47:31.878Z,83.51
2019-01-10T19:50:02.298Z,83.53
2019-01-10T19:52:32.500Z,83.56
2019-01-10T19:55:02.720Z,83.63
2019-01-10T19:57:32.943Z,83.68
2019-01-10T20:00:03.244Z,83.73
2019-01-10T20:02:33.439Z,83.79
2019-01-10T20:05:03.759Z,83.87
2019-01-10T20:07:33.967Z,83.86
2019-01-10T20:10:04.831Z,83.91
2019-01-10T20:12:35.043Z,83.92
2019-01-10T20:15:05.917Z,83.97
2019-01-10T20:17:36.358Z,84.00
2019-01-10T20:20:14.860Z,84.01
2019-01-10T20:22:45.124Z,84.00
2019-01-10T20:25:15.356Z,83.97
2019-01-10T20:27:45.584Z,83.98
2019-01-10T20:30:16.661Z,84.04
2019-01-10T20:32:47.111Z,84.03
2019-01-10T20:35:17.290Z,84.07
2019-01-10T20:37:47.490Z,84.13
2019-01-10T20:40:18.011Z,84.13
2019-01-10T20:42:48.290Z,84.14
2019-01-10T20:45:18.670Z,84.13
2019-01-10T20:47:49.545Z,84.11
2019-01-10T20:50:19.812Z,84.11
2019-01-10T20:52:50.124Z,84.13
2019-01-10T20:55:20.431Z,84.15
2019-01-10T20:57:50.720Z,84.16
2019-01-10T21:00:22.222Z,84.18
2019-01-10T21:02:52.702Z,84.27
2019-01-10T21:05:22.914Z,84.35
2019-01-10T21:07:53.406Z,84.40
2019-01-10T21:10:23.933Z,84.42
2019-01-10T21:12:54.170Z,84.49
2019-01-10T21:15:28.035Z,84.48
2019-01-10T21:17:58.366Z,84.49
2019-01-10T21:20:28.593Z,84.48
2019-01-10T21:22:59.470Z,84.49
2019-01-10T21:25:29.769Z,84.46
2019-01-10T21:28:00.756Z,84.52
2019-01-10T21:30:31.551Z,84.55
2019-01-10T21:33:01.683Z,84.55
2019-01-10T21:35:31.889Z,84.59
2019-01-10T21:38:02.291Z,84.58
2019-01-10T21:40:32.657Z,84.60
2019-01-10T21:43:02.810Z,84.64
2019-01-10T21:45:33.133Z,84.64
2019-01-10T21:48:03.332Z,84.65
2019-01-10T21:50:33.852Z,84.72
2019-01-10T21:53:06.282Z,84.72
2019-01-10T21:55:36.624Z,84.70
2019-01-10T21:58:07.146Z,84.64
2019-01-10T22:00:37.472Z,84.58
2019-01-10T22:03:07.812Z,84.62
2019-01-10T22:05:38.220Z,84.63
2019-01-10T22:08:11.368Z,84.62
2019-01-10T22:10:41.696Z,84.70
2019-01-10T22:13:11.948Z,84.76
2019-01-10T22:15:42.275Z,84.78
2019-01-10T22:18:12.675Z,84.84
2019-01-10T22:20:43.064Z,84.88
2019-01-10T22:23:13.470Z,84.89
2019-01-10T22:26:03.051Z,84.86
2019-01-10T22:28:52.490Z,84.82
2019-01-10T22:32:02.418Z,84.86
2019-01-10T22:34:36.474Z,84.85
2019-01-10T22:37:32.294Z,84.84
2019-01-10T22:40:06.814Z,84.83
2019-01-10T22:44:17.445Z,84.83
2019-01-10T22:46:43.470Z,84.87
2019-01-10T22:49:50.123Z,84.98
2019-01-10T22:56:07.150Z,84.98
2019-01-10T22:59:08.441Z,85.06
2019-01-10T23:02:14.317Z,85.06
2019-01-10T23:04:42.008Z,85.04
2019-01-10T23:07:23.416Z,85.00
2019-01-10T23:09:55.367Z,85.00
2019-01-10T23:12:32.671Z,85.05
2019-01-10T23:15:29.553Z,85.08
2019-01-10T23:17:59.903Z,85.08
2019-01-10T23:20:30.249Z,85.11
2019-01-10T23:23:07.459Z,85.08
2019-01-10T23:25:37.778Z,85.05
2019-01-10T23:28:09.505Z,85.07
2019-01-10T23:30:57.820Z,85.12
2019-01-10T23:33:28.333Z,85.11
2019-01-10T23:36:04.096Z,85.17
2019-01-10T23:38:34.381Z,85.13
2019-01-10T23:41:04.701Z,85.13
2019-01-10T23:43:35.030Z,85.12
2019-01-10T23:46:05.574Z,85.06
2019-01-10T23:48:35.704Z,85.05
2019-01-10T23:51:06.982Z,85.06
2019-01-10T23:53:37.136Z,85.12
2019-01-10T23:56:07.180Z,85.15
2019-01-10T23:58:37.432Z,85.18
